createdAt,value
2023-04-24T00:01:15.393Z,13.84
2023-04-24T00:06:38.444Z,13.77
2023-04-24T00:12:00.358Z,13.71
2023-04-24T00:17:22.219Z,13.69
2023-04-24T00:22:44.048Z,13.67
2023-04-24T00:28:05.848Z,13.51
2023-04-24T00:33:27.680Z,13.48
2023-04-24T00:38:49.512Z,13.43
2023-04-24T00:44:11.477Z,13.42
2023-04-24T00:49:33.296Z,13.47
2023-04-24T00:54:55.104Z,13.37
2023-04-24T01:00:18.116Z,13.38
2023-04-24T01:05:40.041Z,13.37
2023-04-24T01:11:04.682Z,13.38
2023-04-24T01:16:26.706Z,13.05
2023-04-24T01:21:51.726Z,13.04
2023-04-24T01:27:14.238Z,13.13
2023-04-24T01:32:37.900Z,13.17
2023-04-24T01:37:59.854Z,13.17
2023-04-24T01:43:22.596Z,13.15
2023-04-24T01:48:46.523Z,13.07
2023-04-24T01:54:08.340Z,12.93
2023-04-24T01:59:30.962Z,12.93
2023-04-24T02:04:52.762Z,12.79
2023-04-24T02:10:14.573Z,12.63
2023-04-24T02:15:36.390Z,12.53
2023-04-24T02:20:58.228Z,12.46
2023-04-24T02:26:20.138Z,12.28
2023-04-24T02:31:41.991Z,12.25
2023-04-24T02:37:03.903Z,12.16
2023-04-24T02:42:25.749Z,12.01
2023-04-24T02:47:47.567Z,12.02
2023-04-24T02:53:09.432Z,11.96
2023-04-24T02:58:31.223Z,11.91
2023-04-24T03:03:53.230Z,11.96
2023-04-24T03:09:15.100Z,11.82
2023-04-24T03:14:36.915Z,11.61
2023-04-24T03:19:58.705Z,11.57
2023-04-24T03:25:20.556Z,11.61
2023-04-24T03:30:42.396Z,11.69
2023-04-24T03:36:04.460Z,11.84
2023-04-24T03:41:26.250Z,11.85
2023-04-24T03:46:48.018Z,11.99
2023-04-24T03:52:09.829Z,12.44
2023-04-24T03:57:31.650Z,13.05
2023-04-24T04:02:53.711Z,13.21
2023-04-24T04:08:15.916Z,12.67
2023-04-24T04:13:37.811Z,13.45
2023-04-24T04:18:59.657Z,14.23
2023-04-24T04:24:21.528Z,15.80
2023-04-24T04:29:43.473Z,18.31
2023-04-24T04:35:05.790Z,18.84
2023-04-24T04:40:27.608Z,20.23
2023-04-24T04:45:49.540Z,19.84
2023-04-24T04:51:11.344Z,19.09
2023-04-24T04:56:33.175Z,18.41
2023-04-24T05:01:54.944Z,18.44
2023-04-24T05:07:16.839Z,19.07
2023-04-24T05:12:38.632Z,20.51
2023-04-24T05:18:00.719Z,22.53
2023-04-24T05:23:22.594Z,23.77
2023-04-24T05:28:44.406Z,25.87
2023-04-24T05:34:06.817Z,26.83
2023-04-24T05:39:28.629Z,29.85
2023-04-24T05:44:52.063Z,30.85
2023-04-24T05:50:15.208Z,30.65
2023-04-24T05:55:37.690Z,32.41
2023-04-24T06:00:59.632Z,33.66
2023-04-24T06:06:21.460Z,33.99
2023-04-24T06:11:43.246Z,34.27
2023-04-24T06:17:05.061Z,33.59
2023-04-24T06:22:26.875Z,34.09
2023-04-24T06:27:48.727Z,34.48
2023-04-24T06:33:20.388Z,33.92
2023-04-24T06:38:43.695Z,35.62
2023-04-24T06:44:05.468Z,36.89
2023-04-24T06:49:27.287Z,36.87
2023-04-24T06:54:49.278Z,36.03
2023-04-24T07:00:11.756Z,34.99
2023-04-24T07:05:33.610Z,34.72
2023-04-24T07:10:55.415Z,35.09
2023-04-24T07:16:17.396Z,31.14
2023-04-24T07:21:39.310Z,35.68
2023-04-24T07:27:01.430Z,34.86
2023-04-24T07:32:23.232Z,32.62
2023-04-24T07:37:45.083Z,35.36
2023-04-24T07:43:06.995Z,35.18
2023-04-24T07:48:28.882Z,36.25
2023-04-24T07:53:50.701Z,37.46
2023-04-24T07:59:12.590Z,38.19
2023-04-24T08:04:34.858Z,35.45
2023-04-24T08:09:56.798Z,35.00
2023-04-24T08:15:18.866Z,35.85
2023-04-24T08:20:40.692Z,34.19
2023-04-24T08:26:02.634Z,32.80
2023-04-24T08:31:24.814Z,33.00
2023-04-24T08:36:47.687Z,33.03
2023-04-24T08:42:12.217Z,34.55
2023-04-24T08:47:34.589Z,32.48
2023-04-24T08:52:56.449Z,29.68
2023-04-24T08:58:18.565Z,29.50
2023-04-24T09:03:41.194Z,28.05
2023-04-24T09:09:03.785Z,28.28
2023-04-24T09:14:26.858Z,27.62
2023-04-24T09:19:48.674Z,27.11
2023-04-24T09:25:10.962Z,27.29
2023-04-24T09:30:32.993Z,27.31
2023-04-24T09:35:54.799Z,27.77
2023-04-24T09:41:16.631Z,28.38
2023-04-24T09:46:38.785Z,29.22
2023-04-24T09:52:09.252Z,29.48
2023-04-24T09:57:32.406Z,29.57
2023-04-24T10:02:58.172Z,28.45
2023-04-24T10:08:20.273Z,28.68
2023-04-24T10:13:42.350Z,27.98
2023-04-24T10:19:04.620Z,26.59
2023-04-24T10:24:26.450Z,26.28
2023-04-24T10:29:49.330Z,26.14
2023-04-24T10:35:14.346Z,26.38
2023-04-24T10:40:37.226Z,25.08
2023-04-24T10:46:04.093Z,24.56
2023-04-24T10:51:45.442Z,24.25
2023-04-24T10:57:19.309Z,23.94
2023-04-24T11:02:41.673Z,24.35
2023-04-24T11:08:15.357Z,24.52
2023-04-24T11:13:55.470Z,24.48
2023-04-24T11:19:17.229Z,24.41
2023-04-24T11:24:48.063Z,24.90
2023-04-24T11:30:11.519Z,24.52
2023-04-24T11:35:42.750Z,24.63
2023-04-24T11:41:04.630Z,24.20
2023-04-24T11:46:30.644Z,24.13
2023-04-24T11:51:58.053Z,23.93
2023-04-24T11:57:23.208Z,24.49
2023-04-24T12:02:45.474Z,24.33
2023-04-24T12:08:07.865Z,24.06
2023-04-24T12:13:29.954Z,24.35
2023-04-24T12:18:52.440Z,24.45
2023-04-24T12:24:14.468Z,23.99
2023-04-24T12:29:36.317Z,24.17
2023-04-24T12:34:59.161Z,24.20
2023-04-24T12:40:22.812Z,23.68
2023-04-24T12:45:44.932Z,23.69
2023-04-24T12:51:06.752Z,23.83
2023-04-24T12:56:28.828Z,24.53
2023-04-24T13:01:51.537Z,24.28
2023-04-24T13:07:14.248Z,24.53
2023-04-24T13:12:36.403Z,23.70
2023-04-24T13:17:58.381Z,23.05
2023-04-24T13:23:20.299Z,23.72
2023-04-24T13:28:42.112Z,23.91
2023-04-24T13:34:04.787Z,23.87
2023-04-24T13:39:27.505Z,23.53
2023-04-24T13:44:49.422Z,23.14
2023-04-24T13:50:11.585Z,22.34
2023-04-24T13:55:33.519Z,22.26
2023-04-24T14:00:56.002Z,22.44
2023-04-24T14:06:18.914Z,21.98
2023-04-24T14:11:41.073Z,22.11
2023-04-24T14:17:02.956Z,22.03
2023-04-24T14:22:24.800Z,22.35
2023-04-24T14:27:46.667Z,22.70
2023-04-24T14:33:08.536Z,23.21
2023-04-24T14:38:30.366Z,22.81
2023-04-24T14:43:52.210Z,23.41
2023-04-24T14:49:14.042Z,23.39
2023-04-24T14:54:35.879Z,23.16
2023-04-24T14:59:57.941Z,22.79
2023-04-24T15:05:20.235Z,22.53
2023-04-24T15:10:42.303Z,22.33
2023-04-24T15:16:04.291Z,22.08
2023-04-24T15:21:26.276Z,21.93
2023-04-24T15:26:48.158Z,21.90
2023-04-24T15:32:10.548Z,21.61
2023-04-24T15:37:32.682Z,21.69
2023-04-24T15:42:54.543Z,21.71
2023-04-24T15:48:16.469Z,21.34
2023-04-24T15:53:38.320Z,21.57
2023-04-24T15:59:00.160Z,21.49
2023-04-24T16:04:22.245Z,21.45
2023-04-24T16:09:44.841Z,21.58
2023-04-24T16:15:07.167Z,21.41
2023-04-24T16:20:28.989Z,21.46
2023-04-24T16:25:50.968Z,21.46
2023-04-24T16:31:12.849Z,21.47
2023-04-24T16:36:35.977Z,21.34
2023-04-24T16:41:59.790Z,21.42
2023-04-24T16:47:22.202Z,21.44
2023-04-24T16:52:44.180Z,21.41
2023-04-24T16:58:05.999Z,21.35
2023-04-24T17:03:28.028Z,21.28
2023-04-24T17:08:50.160Z,21.19
2023-04-24T17:14:12.312Z,21.07
2023-04-24T17:19:34.462Z,21.02
2023-04-24T17:24:56.299Z,20.85
2023-04-24T17:30:18.259Z,20.69
2023-04-24T17:35:40.168Z,20.63
2023-04-24T17:41:02.530Z,20.45
2023-04-24T17:46:24.493Z,20.45
2023-04-24T17:51:46.394Z,20.31
2023-04-24T17:57:08.277Z,20.10
2023-04-24T18:02:30.324Z,20.16
2023-04-24T18:07:52.172Z,20.01
2023-04-24T18:13:14.045Z,19.87
2023-04-24T18:18:35.975Z,19.69
2023-04-24T18:23:57.846Z,19.54
2023-04-24T18:29:19.715Z,19.48
2023-04-24T18:34:41.579Z,19.40
2023-04-24T18:40:03.701Z,19.22
2023-04-24T18:45:25.601Z,19.07
2023-04-24T18:50:47.451Z,18.94
2023-04-24T18:56:09.301Z,18.81
2023-04-24T19:01:31.298Z,18.56
2023-04-24T19:06:53.168Z,18.39
2023-04-24T19:12:15.119Z,18.22
2023-04-24T19:17:37.015Z,18.15
2023-04-24T19:22:58.893Z,17.98
2023-04-24T19:28:20.747Z,17.74
2023-04-24T19:33:42.581Z,17.62
2023-04-24T19:39:04.482Z,17.49
2023-04-24T19:44:26.296Z,17.27
2023-04-24T19:49:48.118Z,17.15
2023-04-24T19:55:10.128Z,17.05
2023-04-24T20:00:32.059Z,16.96
2023-04-24T20:05:54.214Z,17.01
2023-04-24T20:11:16.823Z,16.91
2023-04-24T20:16:38.709Z,16.79
2023-04-24T20:22:00.667Z,16.68
2023-04-24T20:27:22.573Z,16.61
2023-04-24T20:32:44.846Z,16.50
2023-04-24T20:38:06.807Z,16.38
2023-04-24T20:43:29.475Z,16.39
2023-04-24T20:48:51.507Z,16.32
2023-04-24T20:54:13.337Z,16.16
2023-04-24T20:59:35.548Z,15.92
2023-04-24T21:04:57.418Z,15.92
2023-04-24T21:10:19.328Z,15.93
2023-04-24T21:15:41.244Z,15.86
2023-04-24T21:21:03.240Z,15.71
2023-04-24T21:26:25.150Z,15.64
2023-04-24T21:31:47.008Z,15.61
2023-04-24T21:37:09.182Z,15.39
2023-04-24T21:42:31.348Z,15.29
2023-04-24T21:47:53.192Z,15.23
2023-04-24T21:53:15.148Z,15.10
2023-04-24T21:58:37.237Z,15.17
2023-04-24T22:03:59.461Z,15.05
2023-04-24T22:09:21.564Z,14.94
2023-04-24T22:14:43.429Z,14.78
2023-04-24T22:20:05.883Z,14.71
2023-04-24T22:25:27.730Z,14.63
2023-04-24T22:30:49.633Z,14.54
2023-04-24T22:36:11.580Z,14.49
2023-04-24T22:41:33.461Z,14.48
2023-04-24T22:46:55.717Z,14.40
2023-04-24T22:52:17.559Z,14.39
2023-04-24T22:57:40.262Z,14.32
2023-04-24T23:03:02.451Z,14.32
2023-04-24T23:08:24.549Z,14.24
2023-04-24T23:13:46.534Z,14.20
2023-04-24T23:19:08.524Z,14.18
2023-04-24T23:24:30.357Z,14.16
2023-04-24T23:29:52.214Z,14.11
2023-04-24T23:35:14.151Z,14.02
2023-04-24T23:40:36.149Z,13.94
2023-04-24T23:45:57.970Z,13.96
2023-04-24T23:51:20.036Z,13.96
2023-04-24T23:56:43.363Z,13.79
